Time;durP1;ratioP1;P1;durP2;ratioP2;P2;SDS_P1;SDS_P2;PMS_P1;PMS_P2;Temp;Humidity;BMP_temperature;BMP_pressure;BME280_temperature;BME280_humidity;BME280_pressure;Samples;Min_cycle;Max_cycle;Signal;HPM_P1;HPM_P2
2023/03/09 00:01:30;;;;;;;23.27;17.92;;;;;;;2.54;84.85;98802.72;3611257;39;20124;-71
2023/03/09 00:03:58;;;;;;;23.05;17.48;;;;;;;2.55;84.99;98796.44;3609701;39;20047;-71
2023/03/09 00:06:23;;;;;;;23.80;17.40;;;;;;;2.56;85.07;98782.22;3610252;39;20059;-71
2023/03/09 00:08:50;;;;;;;24.65;18.35;;;;;;;2.31;85.02;98729.88;3610345;39;20117;-71
2023/03/09 00:11:17;;;;;;;24.08;18.45;;;;;;;2.34;84.78;98742.09;3605956;39;20289;-71
2023/03/09 00:13:45;;;;;;;25.75;18.27;;;;;;;2.59;84.00;98785.66;3607893;39;20058;-70
2023/03/09 00:16:21;;;;;;;24.45;17.45;;;;;;;2.61;84.85;98781.97;3609558;39;20107;-71
2023/03/09 00:18:47;;;;;;;24.85;18.92;;;;;;;2.60;84.11;98756.41;3611003;39;20457;-70
2023/03/09 00:21:34;;;;;;;24.23;19.20;;;;;;;2.61;84.79;98746.66;3608026;39;20070;-70
2023/03/09 00:24:09;;;;;;;24.52;18.35;;;;;;;2.65;85.11;98798.53;3608724;39;20053;-70
2023/03/09 00:26:38;;;;;;;24.98;18.38;;;;;;;2.62;84.20;98810.19;3606841;39;20073;-70
2023/03/09 00:29:07;;;;;;;25.15;18.17;;;;;;;2.59;83.94;98822.78;3609645;39;20057;-69
2023/03/09 00:31:32;;;;;;;23.73;17.58;;;;;;;2.60;83.73;98820.06;3607576;39;20063;-70
2023/03/09 00:33:58;;;;;;;24.13;18.42;;;;;;;2.58;84.92;98815.78;3610346;39;20066;-70
2023/03/09 00:36:24;;;;;;;24.42;18.15;;;;;;;2.49;84.02;98810.09;3606560;39;20301;-70
2023/03/09 00:38:52;;;;;;;24.73;18.48;;;;;;;2.39;83.86;98801.00;3612983;39;20054;-69
2023/03/09 00:41:20;;;;;;;25.92;18.70;;;;;;;2.60;84.53;98835.09;3611458;39;20091;-71
2023/03/09 00:43:47;;;;;;;25.98;19.83;;;;;;;2.68;84.16;98841.63;3609488;39;20382;-70
2023/03/09 00:46:13;;;;;;;24.55;18.67;;;;;;;2.68;84.11;98839.00;3608226;39;20106;-70
2023/03/09 00:48:40;;;;;;;26.02;17.90;;;;;;;2.66;84.44;98850.63;3610340;39;20047;-70
2023/03/09 00:51:08;;;;;;;25.73;18.63;;;;;;;2.60;83.35;98856.31;3607278;39;20062;-70
2023/03/09 00:53:35;;;;;;;27.17;19.60;;;;;;;2.63;84.25;98858.78;3607973;39;20071;-70
2023/03/09 00:56:04;;;;;;;25.00;18.73;;;;;;;2.62;84.48;98846.47;3610584;39;20082;-70
2023/03/09 00:58:30;;;;;;;26.63;19.63;;;;;;;2.58;83.91;98853.75;3609471;39;20165;-70
2023/03/09 01:00:56;;;;;;;25.10;18.25;;;;;;;2.42;84.77;98837.94;3601427;39;20107;-70
2023/03/09 01:03:22;;;;;;;27.35;19.40;;;;;;;2.60;84.34;98883.72;3607081;39;20452;-70
2023/03/09 01:05:49;;;;;;;26.33;19.05;;;;;;;2.64;83.28;98873.78;3608312;39;20140;-71
2023/03/09 01:08:14;;;;;;;26.05;19.35;;;;;;;2.67;84.00;98884.19;3608083;39;20398;-70
2023/03/09 01:10:41;;;;;;;28.30;19.92;;;;;;;2.63;84.19;98890.59;3612428;39;20059;-70
2023/03/09 01:13:09;;;;;;;25.58;18.45;;;;;;;2.70;83.97;98926.44;3609114;39;20058;-70
2023/03/09 01:15:35;;;;;;;26.10;18.95;;;;;;;2.71;83.25;98936.97;3598799;39;20039;-70
2023/03/09 01:18:01;;;;;;;25.90;18.10;;;;;;;2.74;84.25;98933.28;3608486;39;20234;-69
2023/03/09 01:20:27;;;;;;;27.70;19.52;;;;;;;2.43;83.22;98866.16;3607579;39;20308;-70
2023/03/09 01:22:52;;;;;;;25.40;18.98;;;;;;;2.72;84.17;98929.84;3606809;39;20371;-70
2023/03/09 01:25:18;;;;;;;26.90;19.73;;;;;;;2.73;83.28;98921.81;3608083;39;20102;-69
2023/03/09 01:27:44;;;;;;;25.88;18.80;;;;;;;2.66;84.29;98903.69;3609921;39;20050;-70
2023/03/09 01:30:11;;;;;;;24.98;18.45;;;;;;;2.74;83.92;98931.47;3609301;39;20058;-69
2023/03/09 01:32:37;;;;;;;24.17;17.42;;;;;;;2.74;83.85;98943.88;3599942;39;20048;-70
2023/03/09 01:35:04;;;;;;;23.52;18.02;;;;;;;2.71;83.78;98949.38;3598842;39;20043;-70
2023/03/09 01:37:30;;;;;;;24.23;17.50;;;;;;;2.74;84.30;98960.66;3610527;39;20055;-69
2023/03/09 01:39:56;;;;;;;26.58;18.33;;;;;;;2.61;84.28;98933.16;3610037;39;20757;-69
2023/03/09 01:42:22;;;;;;;23.30;16.60;;;;;;;2.76;84.06;98958.78;3611831;39;20082;-70
2023/03/09 01:45:18;;;;;;;23.52;17.38;;;;;;;2.76;83.58;98953.47;3615696;39;20105;-70
2023/03/09 01:47:46;;;;;;;23.45;16.88;;;;;;;2.76;84.16;98952.63;3614201;39;20055;-71
2023/03/09 01:50:21;;;;;;;23.58;17.52;;;;;;;2.80;84.06;98948.81;3610680;39;20047;-70
2023/03/09 01:52:50;;;;;;;23.85;17.15;;;;;;;2.81;83.83;98961.13;3607694;39;20067;-71
2023/03/09 01:55:25;;;;;;;25.98;17.45;;;;;;;2.82;83.99;98961.97;3609488;39;20079;-70
2023/03/09 01:57:59;;;;;;;26.15;18.58;;;;;;;2.85;83.75;98970.59;3611106;39;20142;-70
2023/03/09 02:00:25;;;;;;;24.83;18.05;;;;;;;2.85;84.44;98972.41;3609962;39;20051;-70
2023/03/09 02:03:10;;;;;;;24.63;17.77;;;;;;;2.81;84.54;98973.56;3610117;39;20115;-70
2023/03/09 02:05:55;;;;;;;25.13;18.30;;;;;;;2.88;84.08;98988.16;3610829;39;20089;-70
2023/03/09 02:08:26;;;;;;;25.70;18.55;;;;;;;2.86;83.68;98988.25;3611638;39;20067;-70
2023/03/09 02:11:01;;;;;;;25.55;18.13;;;;;;;2.82;83.55;98993.81;3610135;39;20091;-70
2023/03/09 02:13:36;;;;;;;25.25;18.55;;;;;;;2.86;83.49;98996.22;3611380;39;20082;-71
2023/03/09 02:16:03;;;;;;;25.33;18.15;;;;;;;2.85;84.40;98993.63;3610677;39;20087;-70
2023/03/09 02:18:29;;;;;;;26.20;18.52;;;;;;;2.85;83.53;98986.53;3612154;39;20059;-71
2023/03/09 02:21:26;;;;;;;27.45;19.13;;;;;;;2.86;84.07;98975.00;3610267;39;20050;-70
2023/03/09 02:23:56;;;;;;;25.77;17.90;;;;;;;2.86;84.75;98975.00;3610283;39;20057;-70
2023/03/09 02:26:47;;;;;;;25.48;18.27;;;;;;;2.88;84.45;98978.38;3609383;39;20043;-70
2023/03/09 02:29:14;;;;;;;26.58;18.80;;;;;;;2.78;84.30;98963.97;3608736;39;20043;-70
2023/03/09 02:31:40;;;;;;;25.23;18.52;;;;;;;2.87;83.89;98984.66;3606196;39;20058;-70
2023/03/09 02:34:07;;;;;;;27.77;19.95;;;;;;;2.59;84.35;98939.50;3609713;39;20383;-70
2023/03/09 02:36:33;;;;;;;27.48;19.63;;;;;;;2.83;83.36;98996.41;3608172;39;20059;-70
2023/03/09 02:39:17;;;;;;;26.15;19.25;;;;;;;2.82;84.09;99015.03;3609184;39;20050;-69
2023/03/09 02:41:43;;;;;;;26.60;19.48;;;;;;;2.82;83.83;99010.59;3610741;39;20066;-70
2023/03/09 02:44:10;;;;;;;29.02;19.60;;;;;;;2.86;84.04;99019.25;3607838;39;20428;-70
2023/03/09 02:46:35;;;;;;;28.02;19.88;;;;;;;2.86;84.28;99016.59;3610264;39;20314;-70
2023/03/09 02:49:01;;;;;;;28.20;19.92;;;;;;;2.81;84.28;99003.59;3609440;39;20063;-70
2023/03/09 02:51:26;;;;;;;28.98;20.48;;;;;;;2.88;84.31;99020.84;3609695;39;20054;-70
2023/03/09 02:53:52;;;;;;;28.92;20.15;;;;;;;2.89;84.91;99011.97;3609800;39;20066;-70
2023/03/09 02:56:18;;;;;;;28.45;19.70;;;;;;;2.90;84.18;99008.34;3610917;39;20367;-70
2023/03/09 02:58:43;;;;;;;30.77;21.83;;;;;;;2.94;84.19;99009.88;3605727;39;20062;-70
2023/03/09 03:01:09;;;;;;;27.90;20.55;;;;;;;2.94;83.86;99007.22;3609098;39;20389;-70
2023/03/09 03:03:34;;;;;;;29.70;20.90;;;;;;;2.91;83.68;99004.75;3608837;39;20057;-71
2023/03/09 03:06:00;;;;;;;31.55;22.45;;;;;;;2.88;83.69;99004.91;3611353;39;20320;-70
2023/03/09 03:08:26;;;;;;;32.78;22.02;;;;;;;2.51;84.10;98956.72;3607668;39;20054;-70
2023/03/09 03:10:51;;;;;;;33.22;22.83;;;;;;;2.84;84.50;99011.38;3609788;39;20103;-70
2023/03/09 03:13:17;;;;;;;31.13;20.80;;;;;;;2.83;84.73;99017.63;3615141;39;20057;-69
2023/03/09 03:15:42;;;;;;;32.20;22.33;;;;;;;2.85;84.58;99010.41;3606815;39;20071;-69
2023/03/09 03:18:08;;;;;;;32.92;22.45;;;;;;;2.81;84.59;99011.53;3608745;39;20419;-69
2023/03/09 03:20:34;;;;;;;33.00;22.70;;;;;;;2.83;85.05;99016.78;3610001;39;20454;-69
2023/03/09 03:23:00;;;;;;;30.67;21.25;;;;;;;2.83;84.64;99020.28;3609303;39;20051;-69
2023/03/09 03:25:25;;;;;;;31.88;21.65;;;;;;;2.83;85.03;99025.59;3609783;39;20074;-69
2023/03/09 03:27:51;;;;;;;30.73;21.83;;;;;;;2.82;84.43;99030.97;3610003;39;20091;-69
2023/03/09 03:30:17;;;;;;;33.60;23.10;;;;;;;2.83;83.75;99032.69;3613411;39;20399;-69
2023/03/09 03:32:42;;;;;;;30.38;21.15;;;;;;;2.82;84.88;99045.09;3609198;39;20305;-69
2023/03/09 03:35:08;;;;;;;31.25;22.75;;;;;;;2.82;84.35;99053.03;3609491;39;20054;-69
2023/03/09 03:37:34;;;;;;;34.28;22.15;;;;;;;2.84;84.10;99076.84;3607289;39;20057;-69
2023/03/09 03:39:59;;;;;;;32.83;22.77;;;;;;;2.87;85.07;99089.94;3595242;39;20070;-69
2023/03/09 03:42:25;;;;;;;32.40;22.48;;;;;;;2.88;84.18;99091.63;3605276;39;20070;-70
2023/03/09 03:44:51;;;;;;;32.70;23.00;;;;;;;2.92;84.91;99090.53;3605266;39;20472;-70
2023/03/09 03:47:16;;;;;;;33.05;22.10;;;;;;;2.94;83.94;99085.97;3611433;39;20058;-70
2023/03/09 03:49:42;;;;;;;35.38;22.95;;;;;;;2.95;84.19;99085.03;3608999;39;20062;-69
2023/03/09 03:52:09;;;;;;;33.28;23.52;;;;;;;2.86;83.40;99075.81;3610520;39;20055;-69
2023/03/09 03:54:35;;;;;;;34.35;23.13;;;;;;;2.88;84.28;99084.53;3608115;39;20051;-69
2023/03/09 03:57:01;;;;;;;35.55;24.50;;;;;;;2.71;83.98;99061.63;3614161;39;20042;-70
2023/03/09 03:59:27;;;;;;;33.10;23.30;;;;;;;2.86;84.37;99085.59;3611523;39;20297;-69
2023/03/09 04:01:52;;;;;;;36.83;24.83;;;;;;;2.84;84.29;99088.31;3609820;39;20059;-69
2023/03/09 04:04:18;;;;;;;36.30;24.95;;;;;;;2.81;84.48;99080.53;3611267;39;20062;-69
2023/03/09 04:06:44;;;;;;;37.25;24.10;;;;;;;2.69;83.94;99067.97;3609718;39;20488;-69
2023/03/09 04:09:10;;;;;;;35.75;23.25;;;;;;;2.85;84.01;99089.16;3612527;39;20106;-67
2023/03/09 04:11:36;;;;;;;36.78;24.70;;;;;;;2.84;84.72;99087.47;3610151;39;20086;-68
2023/03/09 04:14:01;;;;;;;36.58;24.67;;;;;;;2.87;84.13;99101.41;3609097;39;20091;-67
2023/03/09 04:16:27;;;;;;;36.28;24.73;;;;;;;2.88;84.32;99108.41;3606911;39;20050;-67
2023/03/09 04:18:53;;;;;;;37.40;25.17;;;;;;;2.85;84.09;99110.38;3609948;39;20062;-67
2023/03/09 04:21:18;;;;;;;37.10;24.17;;;;;;;2.82;84.06;99111.41;3607849;39;20058;-68
2023/03/09 04:23:44;;;;;;;40.28;26.17;;;;;;;2.48;84.54;99070.94;3610622;39;20120;-68
2023/03/09 04:26:11;;;;;;;40.88;26.30;;;;;;;2.80;84.08;99115.97;3610721;39;20262;-67
2023/03/09 04:28:36;;;;;;;41.28;26.00;;;;;;;2.79;84.52;99122.22;3605688;39;20051;-67
2023/03/09 04:31:02;;;;;;;41.30;27.00;;;;;;;2.79;84.72;99124.84;3603453;39;20282;-67
2023/03/09 04:33:27;;;;;;;42.65;27.73;;;;;;;2.78;83.99;99126.66;3609629;39;20105;-67
2023/03/09 04:35:53;;;;;;;40.08;27.08;;;;;;;2.83;85.11;99126.41;3609134;39;20055;-68
2023/03/09 04:38:19;;;;;;;44.15;27.35;;;;;;;2.86;84.48;99134.19;3612772;39;20084;-68
2023/03/09 04:40:44;;;;;;;42.85;26.45;;;;;;;2.61;84.19;99087.00;3608665;39;20435;-68
2023/03/09 04:43:10;;;;;;;42.17;27.73;;;;;;;2.79;84.10;99122.22;3611333;39;20062;-67
2023/03/09 04:45:36;;;;;;;41.50;26.65;;;;;;;2.85;84.19;99144.88;3608273;39;20074;-67
2023/03/09 04:48:01;;;;;;;42.20;27.70;;;;;;;2.83;84.68;99147.63;3609830;39;20387;-68
2023/03/09 04:50:27;;;;;;;45.25;27.88;;;;;;;2.83;83.84;99152.94;3605690;39;20059;-67
2023/03/09 04:52:55;;;;;;;45.60;27.67;;;;;;;2.77;84.01;99148.84;3606979;39;20055;-68
2023/03/09 04:55:21;;;;;;;45.60;28.45;;;;;;;2.81;83.86;99159.28;3608025;39;20078;-68
2023/03/09 04:57:46;;;;;;;43.83;27.30;;;;;;;2.78;84.85;99157.66;3605709;39;20063;-67
2023/03/09 05:00:13;;;;;;;46.63;29.25;;;;;;;2.79;84.62;99162.00;3606655;39;20620;-68
2023/03/09 05:02:40;;;;;;;44.58;28.58;;;;;;;2.81;84.78;99161.94;3607781;39;20051;-67
2023/03/09 05:05:09;;;;;;;48.25;28.27;;;;;;;2.83;84.87;99176.84;3605167;39;20067;-68
2023/03/09 05:07:36;;;;;;;48.63;28.55;;;;;;;2.83;84.52;99170.69;3609523;39;20330;-68
2023/03/09 05:10:03;;;;;;;47.72;29.33;;;;;;;2.83;84.65;99170.69;3608884;39;20416;-67
2023/03/09 05:12:31;;;;;;;50.30;30.20;;;;;;;2.82;83.72;99180.41;3608873;39;20091;-67
2023/03/09 05:14:58;;;;;;;47.05;30.67;;;;;;;2.83;84.72;99187.44;3608137;39;20300;-67
2023/03/09 05:17:24;;;;;;;47.97;29.63;;;;;;;2.84;84.21;99196.25;3597619;39;20047;-68
2023/03/09 05:19:50;;;;;;;45.63;29.65;;;;;;;2.83;84.95;99198.06;3610014;39;20128;-68
2023/03/09 05:22:17;;;;;;;50.17;29.50;;;;;;;2.81;84.44;99213.19;3618388;39;20047;-68
2023/03/09 05:24:43;;;;;;;52.85;30.42;;;;;;;2.81;83.87;99215.84;3610575;39;20099;-68
2023/03/09 05:27:08;;;;;;;48.92;29.23;;;;;;;2.79;84.94;99210.66;3607682;39;20058;-66
2023/03/09 05:29:34;;;;;;;47.45;29.30;;;;;;;2.81;84.27;99207.03;3608331;39;20059;-67
2023/03/09 05:32:01;;;;;;;54.90;31.33;;;;;;;2.82;83.81;99201.63;3611226;39;20118;-68
2023/03/09 05:34:26;;;;;;;52.90;31.20;;;;;;;2.77;84.07;99198.41;3609937;39;20058;-67
2023/03/09 05:36:52;;;;;;;49.92;30.45;;;;;;;2.82;84.71;99211.41;3607831;39;20059;-67
2023/03/09 05:39:18;;;;;;;52.72;29.83;;;;;;;2.82;84.01;99211.41;3610900;39;20051;-68
2023/03/09 05:41:43;;;;;;;51.17;30.10;;;;;;;2.78;84.33;99210.72;3610822;39;20063;-70
2023/03/09 05:44:09;;;;;;;53.22;32.33;;;;;;;2.85;84.11;99212.06;3609732;39;20077;-67
2023/03/09 05:46:35;;;;;;;54.22;31.15;;;;;;;2.88;84.80;99198.63;3605301;39;20098;-67
2023/03/09 05:49:00;;;;;;;54.65;31.75;;;;;;;2.90;84.21;99204.72;3610334;39;20106;-67
2023/03/09 05:51:26;;;;;;;58.03;34.28;;;;;;;2.90;84.22;99204.72;3611074;39;20062;-67
2023/03/09 05:53:52;;;;;;;53.15;31.83;;;;;;;2.88;83.38;99205.75;3607814;39;20055;-67
2023/03/09 05:56:18;;;;;;;55.00;33.03;;;;;;;2.70;83.97;99191.72;3609207;39;20424;-67
2023/03/09 05:58:43;;;;;;;53.65;31.33;;;;;;;2.89;83.80;99216.28;3608119;39;20122;-67
2023/03/09 06:01:25;;;;;;;55.88;32.83;;;;;;;2.90;84.13;99225.94;3610735;39;20050;-68
2023/03/09 06:03:52;;;;;;;52.50;31.25;;;;;;;2.94;84.08;99243.41;3609922;39;20047;-67
2023/03/09 06:06:18;;;;;;;52.60;30.75;;;;;;;2.69;84.08;99190.84;3607770;39;20067;-67
2023/03/09 06:08:45;;;;;;;55.90;32.78;;;;;;;2.97;84.44;99232.63;3608977;39;20089;-68
2023/03/09 06:11:11;;;;;;;55.72;33.15;;;;;;;3.00;83.56;99237.75;3607932;39;20050;-67
2023/03/09 06:13:37;;;;;;;55.63;32.25;;;;;;;3.02;83.34;99232.38;3609137;39;20050;-67
2023/03/09 06:16:06;;;;;;;52.15;33.05;;;;;;;3.03;83.43;99237.59;3608790;39;22163;-68
2023/03/09 06:18:33;;;;;;;53.22;32.20;;;;;;;3.06;83.65;99241.03;3609125;39;20054;-66
2023/03/09 06:21:04;;;;;;;53.17;32.58;;;;;;;3.05;83.66;99249.94;3607974;39;20409;-67
2023/03/09 06:23:32;;;;;;;55.05;32.10;;;;;;;3.09;83.66;99254.13;3608081;39;20078;-67
2023/03/09 06:25:58;;;;;;;53.30;32.85;;;;;;;3.11;83.75;99249.56;3611009;39;20043;-66
2023/03/09 06:28:24;;;;;;;54.35;32.70;;;;;;;3.06;83.34;99252.50;3609051;39;20078;-65
2023/03/09 06:30:50;;;;;;;56.50;32.45;;;;;;;3.16;83.23;99258.97;3608829;39;20054;-66
2023/03/09 06:33:16;;;;;;;55.30;32.75;;;;;;;3.16;84.16;99258.97;3611374;39;20062;-66
2023/03/09 06:35:42;;;;;;;58.45;34.72;;;;;;;3.20;83.22;99262.31;3601706;39;20068;-66
2023/03/09 06:38:08;;;;;;;55.80;33.58;;;;;;;3.17;83.79;99259.84;3607911;39;20070;-66
2023/03/09 06:40:34;;;;;;;54.38;32.78;;;;;;;3.21;83.18;99269.38;3608176;39;20114;-66
2023/03/09 06:43:00;;;;;;;53.65;32.58;;;;;;;3.23;82.89;99291.34;3608754;39;20297;-65
2023/03/09 06:45:26;;;;;;;55.80;33.15;;;;;;;3.21;83.14;99279.97;3606061;39;20121;-66
2023/03/09 06:47:56;;;;;;;55.17;32.35;;;;;;;3.20;83.59;99292.41;3608519;39;20114;-66
2023/03/09 06:50:24;;;;;;;56.17;32.42;;;;;;;3.21;83.24;99298.56;3613380;39;20089;-66
2023/03/09 06:52:50;;;;;;;51.40;32.40;;;;;;;3.18;83.50;99301.41;3613860;39;20070;-66
2023/03/09 06:55:16;;;;;;;59.97;33.70;;;;;;;3.22;83.42;99310.91;3611841;39;20058;-66
2023/03/09 06:57:42;;;;;;;53.00;32.17;;;;;;;3.23;83.02;99316.09;3609945;39;20071;-65
2023/03/09 07:00:11;;;;;;;59.45;33.75;;;;;;;3.24;82.52;99315.19;3610061;39;20051;-66
2023/03/09 07:02:38;;;;;;;54.80;32.58;;;;;;;3.25;83.31;99316.03;3608210;39;20051;-67
2023/03/09 07:05:06;;;;;;;54.00;32.90;;;;;;;3.26;83.31;99329.22;3609841;39;20051;-67
2023/03/09 07:07:32;;;;;;;58.90;33.75;;;;;;;3.23;83.30;99329.38;3606299;39;20401;-66
2023/03/09 07:09:58;;;;;;;54.85;33.40;;;;;;;3.29;83.04;99352.09;3610866;39;20063;-67
2023/03/09 07:12:23;;;;;;;57.17;33.40;;;;;;;3.31;83.43;99354.69;3608366;39;20050;-66
2023/03/09 07:14:49;;;;;;;55.47;32.38;;;;;;;3.32;82.19;99354.56;3608384;39;20106;-66
2023/03/09 07:17:14;;;;;;;51.80;32.38;;;;;;;3.31;82.51;99366.16;3610047;39;20050;-67
2023/03/09 07:19:41;;;;;;;52.25;33.15;;;;;;;3.23;82.05;99373.66;3607917;39;20319;-67
2023/03/09 07:22:09;;;;;;;53.47;33.63;;;;;;;3.25;81.89;99390.38;3608785;39;20074;-66
2023/03/09 07:24:36;;;;;;;53.45;32.20;;;;;;;3.26;82.76;99386.78;3608811;39;20385;-66
2023/03/09 07:27:02;;;;;;;49.90;31.88;;;;;;;3.26;82.46;99374.34;3608095;39;20057;-67
2023/03/09 07:29:28;;;;;;;54.97;31.90;;;;;;;3.26;82.12;99386.78;3606855;39;20054;-67
2023/03/09 07:31:54;;;;;;;50.08;31.10;;;;;;;3.28;82.92;99394.69;3607785;39;20061;-67
2023/03/09 07:34:19;;;;;;;55.40;32.30;;;;;;;3.27;83.25;99385.84;3600275;39;20381;-66
2023/03/09 07:36:47;;;;;;;54.60;33.65;;;;;;;3.29;83.12;99397.22;3604240;39;20058;-67
2023/03/09 07:39:13;;;;;;;53.47;32.53;;;;;;;3.25;82.57;99395.69;3610096;39;20065;-67
2023/03/09 07:41:41;;;;;;;53.65;32.92;;;;;;;3.25;82.75;99406.31;3606602;39;20051;-67
2023/03/09 07:44:08;;;;;;;52.20;32.70;;;;;;;3.22;83.00;99420.63;3593175;39;20055;-67
2023/03/09 07:46:34;;;;;;;51.58;32.10;;;;;;;3.29;83.29;99426.44;3605786;39;20374;-66
2023/03/09 07:49:00;;;;;;;52.58;31.65;;;;;;;3.13;82.59;99393.69;3607287;39;20050;-67
2023/03/09 07:51:25;;;;;;;52.88;32.53;;;;;;;3.33;83.40;99421.81;3609464;39;20377;-67
2023/03/09 07:53:51;;;;;;;50.88;31.70;;;;;;;3.35;83.19;99428.75;3610007;39;20043;-67
2023/03/09 07:56:17;;;;;;;52.53;30.38;;;;;;;3.31;82.83;99421.91;3608976;39;20385;-68
2023/03/09 07:58:44;;;;;;;54.60;31.65;;;;;;;3.36;82.99;99419.88;3608388;39;20255;-67
2023/03/09 08:01:16;;;;;;;56.97;32.65;;;;;;;3.40;83.59;99432.03;3608754;39;20043;-67
2023/03/09 08:03:43;;;;;;;54.15;32.00;;;;;;;3.44;82.86;99436.22;3607733;39;20069;-66
2023/03/09 08:06:09;;;;;;;52.65;31.73;;;;;;;3.47;82.34;99432.56;3611000;39;20535;-67
2023/03/09 08:08:36;;;;;;;50.90;30.20;;;;;;;3.52;82.87;99429.63;3608942;39;20062;-67
2023/03/09 08:11:03;;;;;;;52.42;31.30;;;;;;;3.56;81.98;99440.03;3607629;39;20059;-67
2023/03/09 08:13:30;;;;;;;51.10;30.48;;;;;;;3.57;82.17;99444.38;3609222;39;20058;-67
2023/03/09 08:16:02;;;;;;;53.33;32.00;;;;;;;3.57;82.25;99441.72;3610682;39;20063;-67
2023/03/09 08:18:28;;;;;;;53.60;31.13;;;;;;;3.65;82.16;99454.59;3608180;39;20416;-67
2023/03/09 08:20:55;;;;;;;54.80;32.65;;;;;;;3.69;82.06;99458.81;3609260;39;20354;-67
2023/03/09 08:23:20;;;;;;;51.22;30.70;;;;;;;3.70;82.24;99465.81;3609678;39;20127;-66
2023/03/09 08:25:53;;;;;;;50.00;31.77;;;;;;;3.69;81.90;99458.81;3608516;39;20054;-66
2023/03/09 08:28:19;;;;;;;49.75;30.20;;;;;;;3.72;81.91;99458.63;3607141;39;20461;-66
2023/03/09 08:30:45;;;;;;;52.13;31.23;;;;;;;3.75;81.11;99458.47;3607519;39;20059;-67
2023/03/09 08:33:11;;;;;;;52.97;30.77;;;;;;;3.78;82.03;99468.91;3607604;39;20132;-66
2023/03/09 08:35:37;;;;;;;51.80;30.27;;;;;;;3.83;81.71;99477.47;3605635;39;20325;-67
2023/03/09 08:38:03;;;;;;;52.22;30.90;;;;;;;3.66;81.73;99453.66;3609018;39;20066;-66
2023/03/09 08:40:28;;;;;;;49.78;30.05;;;;;;;3.85;81.52;99482.72;3608630;39;20047;-66
2023/03/09 08:42:54;;;;;;;52.95;30.63;;;;;;;3.86;80.88;99497.72;3608425;39;20404;-67
2023/03/09 08:45:20;;;;;;;48.65;30.08;;;;;;;3.87;81.09;99488.78;3612277;39;20318;-67
2023/03/09 08:47:46;;;;;;;54.30;31.98;;;;;;;3.88;81.77;99499.34;3608271;39;20058;-66
2023/03/09 08:50:12;;;;;;;53.90;32.72;;;;;;;3.74;81.00;99459.38;3607818;39;20050;-67
2023/03/09 08:52:39;;;;;;;54.40;32.03;;;;;;;3.90;82.05;99492.16;3609318;39;20061;-67
2023/03/09 08:55:09;;;;;;;54.15;31.15;;;;;;;3.84;81.69;99489.84;3608730;39;20140;-67
2023/03/09 08:57:35;;;;;;;56.53;31.40;;;;;;;4.04;80.83;99517.97;3607379;39;20162;-67
2023/03/09 09:00:00;;;;;;;52.10;30.58;;;;;;;3.93;80.78;99502.63;3608450;39;20063;-67
2023/03/09 09:02:26;;;;;;;51.58;30.30;;;;;;;4.06;80.18;99512.53;3610508;39;20090;-67
2023/03/09 09:04:52;;;;;;;47.33;28.38;;;;;;;4.09;80.09;99515.91;3609146;39;20058;-67
2023/03/09 09:07:18;;;;;;;49.58;29.27;;;;;;;4.11;79.98;99522.00;3609373;39;20049;-67
2023/03/09 09:09:44;;;;;;;47.10;28.20;;;;;;;4.13;79.57;99528.09;3613811;39;20079;-67
2023/03/09 09:12:11;;;;;;;49.13;28.70;;;;;;;4.11;79.65;99523.78;3613045;39;20093;-67
2023/03/09 09:14:38;;;;;;;50.05;28.98;;;;;;;4.11;79.21;99542.41;3613858;39;20119;-66
2023/03/09 09:17:08;;;;;;;49.90;30.30;;;;;;;4.14;79.85;99550.22;3612801;39;20124;-67
2023/03/09 09:19:35;;;;;;;52.55;31.02;;;;;;;4.12;79.14;99547.66;3612617;39;20304;-67
2023/03/09 09:22:03;;;;;;;54.15;31.48;;;;;;;4.10;80.29;99530.91;3610152;39;20063;-68
2023/03/09 09:24:32;;;;;;;50.45;29.92;;;;;;;4.16;80.12;99521.75;3614391;39;20090;-67
2023/03/09 09:26:59;;;;;;;50.72;30.58;;;;;;;4.17;79.72;99540.25;3608726;39;20504;-68
2023/03/09 09:29:26;;;;;;;50.90;30.60;;;;;;;4.21;80.46;99542.75;3606148;39;20371;-67
2023/03/09 09:31:52;;;;;;;60.95;33.50;;;;;;;4.27;81.13;99535.28;3600521;39;20062;-67
2023/03/09 09:34:21;;;;;;;55.17;32.20;;;;;;;4.30;80.14;99537.78;3610595;39;20118;-67
2023/03/09 09:36:47;;;;;;;52.97;31.83;;;;;;;4.28;79.87;99555.63;3606811;39;20058;-67
2023/03/09 09:39:12;;;;;;;51.40;30.88;;;;;;;4.32;79.70;99558.97;3613476;39;20051;-67
2023/03/09 09:41:59;;;;;;;50.75;31.48;;;;;;;4.29;79.10;99564.47;3610750;39;20078;-68
2023/03/09 09:44:35;;;;;;;51.42;30.77;;;;;;;3.95;79.80;99494.56;3610138;39;20078;-67
2023/03/09 09:47:11;;;;;;;54.42;32.33;;;;;;;4.37;79.61;99552.44;3611472;39;20397;-67
2023/03/09 09:49:49;;;;;;;51.72;31.60;;;;;;;4.35;79.23;99543.69;3610748;39;20067;-67
2023/03/09 09:52:48;;;;;;;50.47;31.33;;;;;;;4.42;79.34;99563.69;3609754;39;20051;-68
2023/03/09 09:55:28;;;;;;;51.83;30.25;;;;;;;4.48;79.52;99561.63;3609527;39;20123;-66
2023/03/09 09:58:24;;;;;;;55.38;32.22;;;;;;;4.47;78.29;99562.56;3608121;39;20059;-66
2023/03/09 10:00:59;;;;;;;53.63;31.08;;;;;;;4.40;78.82;99546.94;3613041;39;20266;-67
2023/03/09 10:03:37;;;;;;;48.08;29.58;;;;;;;4.40;78.63;99546.94;3606992;39;20054;-67
2023/03/09 10:06:25;;;;;;;46.33;28.27;;;;;;;4.51;79.00;99554.31;3610079;39;20054;-67
2023/03/09 10:09:01;;;;;;;48.08;30.17;;;;;;;4.57;78.72;99561.09;3607127;39;20343;-67
2023/03/09 10:11:35;;;;;;;46.17;28.83;;;;;;;4.61;78.09;99555.50;3610829;39;20062;-67
2023/03/09 10:14:04;;;;;;;47.85;28.42;;;;;;;4.70;78.34;99558.59;3608257;39;20062;-68
2023/03/09 10:16:43;;;;;;;42.33;25.95;;;;;;;4.74;78.20;99563.63;3609404;39;20059;-67
2023/03/09 10:19:18;;;;;;;40.42;25.55;;;;;;;4.74;77.60;99560.97;3610323;39;20055;-68
2023/03/09 10:21:57;;;;;;;41.97;24.85;;;;;;;4.78;77.40;99559.84;3607548;39;20124;-67
2023/03/09 10:24:39;;;;;;;40.75;25.23;;;;;;;4.83;78.14;99571.09;3605369;39;20066;-67
2023/03/09 10:27:31;;;;;;;41.20;25.52;;;;;;;4.91;77.27;99553.78;3608723;39;20055;-68
2023/03/09 10:30:21;;;;;;;42.25;26.40;;;;;;;4.94;76.78;99556.28;3605441;39;20043;-68
2023/03/09 10:33:01;;;;;;;46.45;28.20;;;;;;;4.97;77.01;99550.78;3611403;39;20051;-67
2023/03/09 10:35:51;;;;;;;42.58;27.25;;;;;;;5.08;77.42;99553.66;3609116;39;20057;-67
2023/03/09 10:38:22;;;;;;;44.35;26.25;;;;;;;5.12;75.79;99550.72;3598612;39;20380;-66
2023/03/09 10:40:57;;;;;;;52.88;32.25;;;;;;;5.17;76.25;99558.44;3608528;39;20055;-66
2023/03/09 10:43:29;;;;;;;41.30;26.52;;;;;;;5.20;76.48;99552.94;3607945;39;20296;-67
2023/03/09 10:46:12;;;;;;;44.78;28.35;;;;;;;5.10;74.94;99562.41;3607179;39;20135;-67
2023/03/09 10:48:38;;;;;;;44.97;27.60;;;;;;;5.11;76.32;99558.81;3610241;39;20063;-67
2023/03/09 10:51:17;;;;;;;44.17;27.23;;;;;;;5.11;76.14;99572.97;3609115;39;20576;-66
2023/03/09 10:53:54;;;;;;;45.90;26.77;;;;;;;5.17;76.50;99569.09;3609910;39;20058;-67
2023/03/09 10:56:30;;;;;;;44.58;27.75;;;;;;;5.20;76.92;99552.94;3610637;39;20047;-67
2023/03/09 10:59:07;;;;;;;43.58;27.27;;;;;;;5.28;77.54;99555.97;3606891;39;20062;-67
2023/03/09 11:01:46;;;;;;;47.63;28.52;;;;;;;5.33;77.25;99550.38;3608686;39;20385;-67
2023/03/09 11:04:23;;;;;;;44.33;28.23;;;;;;;5.44;77.43;99560.38;3608039;39;20478;-67
2023/03/09 11:07:25;;;;;;;49.38;29.88;;;;;;;5.47;77.30;99566.38;3609460;39;20111;-68
2023/03/09 11:09:54;;;;;;;49.28;29.05;;;;;;;5.55;78.02;99573.88;3604544;39;20120;-68
2023/03/09 11:12:39;;;;;;;49.08;29.80;;;;;;;5.60;77.84;99561.16;3608623;39;20063;-68
2023/03/09 11:15:31;;;;;;;47.17;28.15;;;;;;;5.64;77.36;99568.00;3609337;39;21527;-68
2023/03/09 11:17:59;;;;;;;50.17;28.60;;;;;;;5.62;76.13;99559.25;3609355;39;20043;-68
2023/03/09 11:20:37;;;;;;;50.85;30.13;;;;;;;5.63;76.35;99566.28;3606128;39;20385;-67
2023/03/09 11:23:39;;;;;;;46.67;28.73;;;;;;;5.60;76.25;99558.50;3606658;39;20091;-67
2023/03/09 11:26:25;;;;;;;51.40;29.33;;;;;;;5.29;76.68;99508.88;3602219;39;20127;-67
2023/03/09 11:29:06;;;;;;;46.28;28.02;;;;;;;5.63;76.97;99555.63;3608511;39;20132;-66
2023/03/09 11:31:43;;;;;;;44.95;27.80;;;;;;;5.64;76.83;99557.34;3610863;39;20047;-67
2023/03/09 11:34:36;;;;;;;48.10;28.23;;;;;;;5.59;76.73;99557.63;3610569;39;20082;-67